sensor_id;sensor_type;location;lat;lon;timestamp;pressure;altitude;pressure_sealevel;temperature;humidity
66681;BME280;53575;51.366;12.350;2022-09-09T00:01:16;99838.38;;;15.39;90.47
66681;BME280;53575;51.366;12.350;2022-09-09T00:06:31;99825.47;;;15.31;89.98
66681;BME280;53575;51.366;12.350;2022-09-09T00:11:32;99843.94;;;15.29;91.03
66681;BME280;53575;51.366;12.350;2022-09-09T00:14:03;99837.16;;;15.22;91.36
66681;BME280;53575;51.366;12.350;2022-09-09T00:16:36;99835.16;;;15.30;92.27
66681;BME280;53575;51.366;12.350;2022-09-09T00:19:17;99837.16;;;15.22;93.25
66681;BME280;53575;51.366;12.350;2022-09-09T00:22:12;99841.69;;;15.19;91.26
66681;BME280;53575;51.366;12.350;2022-09-09T00:24:47;99836.69;;;15.09;91.62
66681;BME280;53575;51.366;12.350;2022-09-09T00:27:31;99836.25;;;15.23;91.98
66681;BME280;53575;51.366;12.350;2022-09-09T00:30:16;99835.78;;;15.37;89.48
66681;BME280;53575;51.366;12.350;2022-09-09T00:32:45;99835.00;;;15.35;88.70
66681;BME280;53575;51.366;12.350;2022-09-09T00:37:44;99838.28;;;15.42;87.63
66681;BME280;53575;51.366;12.350;2022-09-09T00:40:22;99838.84;;;15.25;89.79
66681;BME280;53575;51.366;12.350;2022-09-09T00:46:26;99836.63;;;15.39;87.40
66681;BME280;53575;51.366;12.350;2022-09-09T00:49:22;99834.50;;;15.24;89.37
66681;BME280;53575;51.366;12.350;2022-09-09T00:52:39;99836.00;;;15.04;91.57
66681;BME280;53575;51.366;12.350;2022-09-09T00:55:16;99837.72;;;15.05;92.79
66681;BME280;53575;51.366;12.350;2022-09-09T00:57:45;99837.16;;;14.96;92.62
66681;BME280;53575;51.366;12.350;2022-09-09T01:00:19;99826.75;;;14.91;93.24
66681;BME280;53575;51.366;12.350;2022-09-09T01:10:53;99836.94;;;15.02;93.66
66681;BME280;53575;51.366;12.350;2022-09-09T01:13:28;99838.13;;;15.20;92.80
66681;BME280;53575;51.366;12.350;2022-09-09T01:16:01;99836.53;;;15.14;93.35
66681;BME280;53575;51.366;12.350;2022-09-09T01:18:35;99836.66;;;15.11;94.50
66681;BME280;53575;51.366;12.350;2022-09-09T01:26:45;99843.28;;;14.96;93.82
66681;BME280;53575;51.366;12.350;2022-09-09T01:29:18;99833.66;;;14.95;95.17
66681;BME280;53575;51.366;12.350;2022-09-09T01:32:00;99832.03;;;14.91;95.29
66681;BME280;53575;51.366;12.350;2022-09-09T01:34:36;99834.88;;;14.85;95.26
66681;BME280;53575;51.366;12.350;2022-09-09T01:37:08;99830.69;;;14.78;95.58
66681;BME280;53575;51.366;12.350;2022-09-09T01:39:37;99832.59;;;14.73;96.16
66681;BME280;53575;51.366;12.350;2022-09-09T01:42:06;99830.41;;;14.87;96.32
66681;BME280;53575;51.366;12.350;2022-09-09T01:44:34;99826.84;;;14.88;94.45
66681;BME280;53575;51.366;12.350;2022-09-09T01:46:59;99824.22;;;14.88;94.15
66681;BME280;53575;51.366;12.350;2022-09-09T01:49:25;99823.50;;;14.83;93.94
66681;BME280;53575;51.366;12.350;2022-09-09T01:51:55;99818.06;;;14.89;93.79
66681;BME280;53575;51.366;12.350;2022-09-09T01:54:23;99830.50;;;14.84;93.33
66681;BME280;53575;51.366;12.350;2022-09-09T01:57:11;99823.38;;;14.87;93.38
66681;BME280;53575;51.366;12.350;2022-09-09T02:02:39;99825.22;;;14.84;93.09
66681;BME280;53575;51.366;12.350;2022-09-09T02:05:27;99826.75;;;14.91;92.35
66681;BME280;53575;51.366;12.350;2022-09-09T02:08:05;99825.34;;;14.81;93.58
66681;BME280;53575;51.366;12.350;2022-09-09T02:13:10;99834.13;;;14.80;92.60
66681;BME280;53575;51.366;12.350;2022-09-09T02:18:04;99828.22;;;14.73;92.81
66681;BME280;53575;51.366;12.350;2022-09-09T02:20:35;99825.47;;;14.76;94.56
66681;BME280;53575;51.366;12.350;2022-09-09T02:23:01;99828.75;;;14.84;91.84
66681;BME280;53575;51.366;12.350;2022-09-09T02:25:28;99831.31;;;14.86;91.14
66681;BME280;53575;51.366;12.350;2022-09-09T02:27:57;99840.22;;;14.82;92.40
66681;BME280;53575;51.366;12.350;2022-09-09T02:30:24;99843.56;;;14.87;91.37
66681;BME280;53575;51.366;12.350;2022-09-09T02:32:52;99844.47;;;14.86;91.87
66681;BME280;53575;51.366;12.350;2022-09-09T02:35:23;99844.56;;;14.83;91.88
66681;BME280;53575;51.366;12.350;2022-09-09T02:37:51;99840.25;;;14.80;92.32
66681;BME280;53575;51.366;12.350;2022-09-09T02:40:18;99837.63;;;14.80;92.60
66681;BME280;53575;51.366;12.350;2022-09-09T02:42:46;99841.38;;;14.73;93.66
66681;BME280;53575;51.366;12.350;2022-09-09T02:45:14;99836.75;;;14.80;93.82
66681;BME280;53575;51.366;12.350;2022-09-09T02:48:14;99837.84;;;14.73;94.84
66681;BME280;53575;51.366;12.350;2022-09-09T02:51:08;99840.78;;;14.63;95.67
66681;BME280;53575;51.366;12.350;2022-09-09T02:53:56;99840.69;;;14.67;95.37
66681;BME280;53575;51.366;12.350;2022-09-09T02:56:27;99832.09;;;14.61;95.48
66681;BME280;53575;51.366;12.350;2022-09-09T02:58:55;99837.28;;;14.63;96.23
66681;BME280;53575;51.366;12.350;2022-09-09T03:01:21;99833.03;;;14.59;96.02
66681;BME280;53575;51.366;12.350;2022-09-09T03:03:46;99834.50;;;14.68;95.08
66681;BME280;53575;51.366;12.350;2022-09-09T03:06:12;99834.47;;;14.69;94.32
66681;BME280;53575;51.366;12.350;2022-09-09T03:08:38;99843.94;;;14.75;93.92
66681;BME280;53575;51.366;12.350;2022-09-09T03:11:03;99839.53;;;14.75;93.44
66681;BME280;53575;51.366;12.350;2022-09-09T03:13:29;99840.78;;;14.63;94.14
66681;BME280;53575;51.366;12.350;2022-09-09T03:15:55;99840.00;;;14.60;94.52
66681;BME280;53575;51.366;12.350;2022-09-09T03:18:20;99843.31;;;14.67;94.16
66681;BME280;53575;51.366;12.350;2022-09-09T03:20:46;99834.16;;;14.49;95.49
66681;BME280;53575;51.366;12.350;2022-09-09T03:23:14;99829.88;;;14.46;96.03
66681;BME280;53575;51.366;12.350;2022-09-09T03:25:39;99839.50;;;14.47;95.56
66681;BME280;53575;51.366;12.350;2022-09-09T03:28:04;99837.84;;;14.43;96.20
66681;BME280;53575;51.366;12.350;2022-09-09T03:30:30;99840.41;;;14.46;97.79
66681;BME280;53575;51.366;12.350;2022-09-09T03:32:55;99841.44;;;14.41;96.80
66681;BME280;53575;51.366;12.350;2022-09-09T03:35:21;99839.94;;;14.32;97.56
66681;BME280;53575;51.366;12.350;2022-09-09T03:37:47;99846.78;;;14.37;96.67
66681;BME280;53575;51.366;12.350;2022-09-09T03:40:13;99845.50;;;14.52;95.20
66681;BME280;53575;51.366;12.350;2022-09-09T03:42:39;99832.34;;;14.52;95.60
66681;BME280;53575;51.366;12.350;2022-09-09T03:45:06;99831.25;;;14.59;94.35
66681;BME280;53575;51.366;12.350;2022-09-09T03:47:34;99827.94;;;14.53;94.96
66681;BME280;53575;51.366;12.350;2022-09-09T03:50:00;99828.91;;;14.50;94.69
66681;BME280;53575;51.366;12.350;2022-09-09T03:52:25;99826.34;;;14.47;95.12
66681;BME280;53575;51.366;12.350;2022-09-09T03:54:52;99826.84;;;14.60;93.87
66681;BME280;53575;51.366;12.350;2022-09-09T03:57:18;99822.00;;;14.46;94.50
66681;BME280;53575;51.366;12.350;2022-09-09T03:59:44;99828.63;;;14.59;93.60
66681;BME280;53575;51.366;12.350;2022-09-09T04:02:10;99821.59;;;14.60;93.79
66681;BME280;53575;51.366;12.350;2022-09-09T04:04:35;99829.00;;;14.46;94.92
66681;BME280;53575;51.366;12.350;2022-09-09T04:07:01;99830.91;;;14.41;95.46
66681;BME280;53575;51.366;12.350;2022-09-09T04:09:27;99830.06;;;14.40;95.70
66681;BME280;53575;51.366;12.350;2022-09-09T04:11:52;99832.69;;;14.40;95.79
66681;BME280;53575;51.366;12.350;2022-09-09T04:14:19;99830.91;;;14.41;96.04
66681;BME280;53575;51.366;12.350;2022-09-09T04:16:44;99829.91;;;14.45;96.10
66681;BME280;53575;51.366;12.350;2022-09-09T04:19:11;99835.09;;;14.48;94.96
66681;BME280;53575;51.366;12.350;2022-09-09T04:21:39;99830.06;;;14.40;95.53
66681;BME280;53575;51.366;12.350;2022-09-09T04:24:06;99840.41;;;14.46;94.96
66681;BME280;53575;51.366;12.350;2022-09-09T04:26:32;99833.41;;;14.45;95.08
66681;BME280;53575;51.366;12.350;2022-09-09T04:28:58;99837.59;;;14.52;95.07
66681;BME280;53575;51.366;12.350;2022-09-09T04:31:24;99837.94;;;14.40;95.42
66681;BME280;53575;51.366;12.350;2022-09-09T04:33:50;99838.72;;;14.44;95.82
66681;BME280;53575;51.366;12.350;2022-09-09T04:36:16;99841.91;;;14.55;94.66
66681;BME280;53575;51.366;12.350;2022-09-09T04:38:41;99840.69;;;14.67;93.53
66681;BME280;53575;51.366;12.350;2022-09-09T04:41:07;99835.44;;;14.67;94.63
66681;BME280;53575;51.366;12.350;2022-09-09T04:43:33;99841.25;;;14.76;92.27
66681;BME280;53575;51.366;12.350;2022-09-09T04:45:59;99841.41;;;14.72;92.49
66681;BME280;53575;51.366;12.350;2022-09-09T04:48:25;99834.38;;;14.72;92.40
66681;BME280;53575;51.366;12.350;2022-09-09T04:51:03;99843.88;;;14.76;92.01
66681;BME280;53575;51.366;12.350;2022-09-09T04:53:29;99842.31;;;14.71;92.40
66681;BME280;53575;51.366;12.350;2022-09-09T04:56:24;99842.50;;;14.65;92.44
66681;BME280;53575;51.366;12.350;2022-09-09T04:58:52;99847.13;;;14.56;93.58
66681;BME280;53575;51.366;12.350;2022-09-09T05:01:19;99849.34;;;14.70;92.43
66681;BME280;53575;51.366;12.350;2022-09-09T05:03:45;99854.63;;;14.69;92.75
66681;BME280;53575;51.366;12.350;2022-09-09T05:06:13;99854.47;;;14.75;92.48
66681;BME280;53575;51.366;12.350;2022-09-09T05:08:40;99854.38;;;14.78;91.95
66681;BME280;53575;51.366;12.350;2022-09-09T05:11:20;99856.16;;;14.77;93.18
66681;BME280;53575;51.366;12.350;2022-09-09T05:13:47;99852.44;;;14.83;92.92
66681;BME280;53575;51.366;12.350;2022-09-09T05:16:15;99854.03;;;14.89;91.79
66681;BME280;53575;51.366;12.350;2022-09-09T05:18:41;99853.97;;;14.90;91.15
66681;BME280;53575;51.366;12.350;2022-09-09T05:21:08;99860.97;;;14.91;92.04
66681;BME280;53575;51.366;12.350;2022-09-09T05:23:34;99859.00;;;14.98;90.96
66681;BME280;53575;51.366;12.350;2022-09-09T05:26:00;99861.47;;;15.04;91.22
66681;BME280;53575;51.366;12.350;2022-09-09T05:28:27;99861.25;;;15.10;90.67
66681;BME280;53575;51.366;12.350;2022-09-09T05:31:12;99865.25;;;15.22;89.76
66681;BME280;53575;51.366;12.350;2022-09-09T05:33:39;99867.63;;;15.29;89.49
66681;BME280;53575;51.366;12.350;2022-09-09T05:36:26;99867.63;;;15.29;89.74
66681;BME280;53575;51.366;12.350;2022-09-09T05:38:51;99866.59;;;15.35;89.74
66681;BME280;53575;51.366;12.350;2022-09-09T05:41:19;99864.63;;;15.42;88.98
66681;BME280;53575;51.366;12.350;2022-09-09T05:43:45;99864.63;;;15.42;89.98
66681;BME280;53575;51.366;12.350;2022-09-09T05:46:13;99857.16;;;15.54;88.42
66681;BME280;53575;51.366;12.350;2022-09-09T05:48:43;99862.88;;;15.69;87.83
66681;BME280;53575;51.366;12.350;2022-09-09T05:51:14;99870.06;;;15.62;88.19
66681;BME280;53575;51.366;12.350;2022-09-09T05:53:43;99867.38;;;15.64;87.59
66681;BME280;53575;51.366;12.350;2022-09-09T05:56:11;99870.78;;;15.69;86.99
66681;BME280;53575;51.366;12.350;2022-09-09T05:58:37;99860.75;;;15.78;85.98
66681;BME280;53575;51.366;12.350;2022-09-09T06:01:08;99865.72;;;15.88;85.44
66681;BME280;53575;51.366;12.350;2022-09-09T06:03:35;99869.84;;;15.95;85.21
66681;BME280;53575;51.366;12.350;2022-09-09T06:06:02;99859.53;;;15.89;85.84
66681;BME280;53575;51.366;12.350;2022-09-09T06:08:31;99871.41;;;16.00;84.65
66681;BME280;53575;51.366;12.350;2022-09-09T06:11:08;99863.59;;;15.97;85.70
66681;BME280;53575;51.366;12.350;2022-09-09T06:13:34;99867.53;;;16.11;84.42
66681;BME280;53575;51.366;12.350;2022-09-09T06:16:00;99862.09;;;16.15;82.89
66681;BME280;53575;51.366;12.350;2022-09-09T06:18:26;99867.00;;;16.26;82.88
66681;BME280;53575;51.366;12.350;2022-09-09T06:21:00;99865.81;;;16.33;82.66
66681;BME280;53575;51.366;12.350;2022-09-09T06:23:29;99861.56;;;16.29;83.80
66681;BME280;53575;51.366;12.350;2022-09-09T06:26:11;99871.09;;;16.33;82.76
66681;BME280;53575;51.366;12.350;2022-09-09T06:28:36;99864.69;;;16.40;82.23
66681;BME280;53575;51.366;12.350;2022-09-09T06:31:08;99865.13;;;16.51;81.04
66681;BME280;53575;51.366;12.350;2022-09-09T06:33:36;99865.88;;;16.55;81.04
66681;BME280;53575;51.366;12.350;2022-09-09T06:36:05;99873.75;;;16.56;81.56
66681;BME280;53575;51.366;12.350;2022-09-09T06:38:31;99871.63;;;16.66;81.01
66681;BME280;53575;51.366;12.350;2022-09-09T06:40:59;99874.81;;;16.76;81.47
66681;BME280;53575;51.366;12.350;2022-09-09T06:43:26;99868.94;;;16.68;80.82
66681;BME280;53575;51.366;12.350;2022-09-09T06:45:58;99867.44;;;16.61;81.66
66681;BME280;53575;51.366;12.350;2022-09-09T06:48:24;99868.53;;;16.78;81.52
66681;BME280;53575;51.366;12.350;2022-09-09T06:51:06;99873.47;;;16.88;80.51
66681;BME280;53575;51.366;12.350;2022-09-09T06:53:33;99875.69;;;16.98;80.56
66681;BME280;53575;51.366;12.350;2022-09-09T06:56:00;99874.09;;;16.94;81.95
66681;BME280;53575;51.366;12.350;2022-09-09T06:58:27;99873.09;;;16.97;81.80
66681;BME280;53575;51.366;12.350;2022-09-09T07:00:53;99877.88;;;17.09;81.03
66681;BME280;53575;51.366;12.350;2022-09-09T07:03:26;99879.31;;;17.18;80.55
66681;BME280;53575;51.366;12.350;2022-09-09T07:05:55;99883.59;;;17.20;79.91
66681;BME280;53575;51.366;12.350;2022-09-09T07:08:21;99882.38;;;17.29;79.43
66681;BME280;53575;51.366;12.350;2022-09-09T07:10:47;99884.56;;;17.40;78.32
66681;BME280;53575;51.366;12.350;2022-09-09T07:13:13;99883.72;;;17.39;78.48
66681;BME280;53575;51.366;12.350;2022-09-09T07:15:41;99880.44;;;17.54;77.33
66681;BME280;53575;51.366;12.350;2022-09-09T07:18:06;99872.09;;;17.43;77.80
66681;BME280;53575;51.366;12.350;2022-09-09T07:20:32;99868.88;;;17.37;78.07
66681;BME280;53575;51.366;12.350;2022-09-09T07:22:57;99877.69;;;17.36;79.31
66681;BME280;53575;51.366;12.350;2022-09-09T07:25:24;99875.66;;;17.42;77.15
66681;BME280;53575;51.366;12.350;2022-09-09T07:27:53;99874.50;;;17.49;77.26
66681;BME280;53575;51.366;12.350;2022-09-09T07:30:18;99879.91;;;17.46;77.48
66681;BME280;53575;51.366;12.350;2022-09-09T07:32:44;99872.91;;;17.45;77.80
66681;BME280;53575;51.366;12.350;2022-09-09T07:35:10;99865.91;;;17.44;76.72
66681;BME280;53575;51.366;12.350;2022-09-09T07:37:36;99864.31;;;17.40;75.93
66681;BME280;53575;51.366;12.350;2022-09-09T07:40:03;99873.09;;;17.41;77.14
66681;BME280;53575;51.366;12.350;2022-09-09T07:42:28;99876.28;;;17.49;76.41
66681;BME280;53575;51.366;12.350;2022-09-09T07:44:55;99881.38;;;17.53;75.60
66681;BME280;53575;51.366;12.350;2022-09-09T07:47:21;99881.16;;;17.58;76.27
66681;BME280;53575;51.366;12.350;2022-09-09T07:49:47;99883.06;;;17.54;76.73
66681;BME280;53575;51.366;12.350;2022-09-09T07:52:15;99887.78;;;17.68;75.91
66681;BME280;53575;51.366;12.350;2022-09-09T07:54:40;99891.00;;;17.76;76.19
66681;BME280;53575;51.366;12.350;2022-09-09T07:57:06;99891.72;;;18.00;75.83
66681;BME280;53575;51.366;12.350;2022-09-09T07:59:32;99893.69;;;18.16;75.58
66681;BME280;53575;51.366;12.350;2022-09-09T08:01:58;99898.59;;;18.25;75.57
66681;BME280;53575;51.366;12.350;2022-09-09T08:04:25;99904.66;;;18.27;74.70
66681;BME280;53575;51.366;12.350;2022-09-09T08:06:56;99904.06;;;18.41;74.16
66681;BME280;53575;51.366;12.350;2022-09-09T08:09:23;99896.03;;;18.42;74.25
66681;BME280;53575;51.366;12.350;2022-09-09T08:11:54;99896.41;;;18.54;73.95
66681;BME280;53575;51.366;12.350;2022-09-09T08:14:21;99899.91;;;18.74;73.12
66681;BME280;53575;51.366;12.350;2022-09-09T08:16:49;99896.59;;;18.88;72.70
66681;BME280;53575;51.366;12.350;2022-09-09T08:19:14;99890.81;;;18.99;73.02
66681;BME280;53575;51.366;12.350;2022-09-09T08:21:44;99896.59;;;19.07;71.88
66681;BME280;53575;51.366;12.350;2022-09-09T08:24:10;99898.25;;;19.10;71.95
66681;BME280;53575;51.366;12.350;2022-09-09T08:26:38;99890.56;;;19.04;72.16
66681;BME280;53575;51.366;12.350;2022-09-09T08:29:06;99896.19;;;18.97;72.95
66681;BME280;53575;51.366;12.350;2022-09-09T08:31:34;99897.31;;;18.92;73.19
66681;BME280;53575;51.366;12.350;2022-09-09T08:34:00;99898.38;;;18.88;74.10
66681;BME280;53575;51.366;12.350;2022-09-09T08:36:28;99895.88;;;18.85;74.25
66681;BME280;53575;51.366;12.350;2022-09-09T08:38:56;99896.75;;;18.85;74.33
66681;BME280;53575;51.366;12.350;2022-09-09T08:47:18;99898.31;;;19.08;73.78
66681;BME280;53575;51.366;12.350;2022-09-09T08:52:36;99901.38;;;19.18;72.42
66681;BME280;53575;51.366;12.350;2022-09-09T08:55:16;99894.63;;;19.30;72.41
66681;BME280;53575;51.366;12.350;2022-09-09T08:57:42;99905.06;;;19.33;72.07
66681;BME280;53575;51.366;12.350;2022-09-09T09:00:11;99906.72;;;19.35;72.98
66681;BME280;53575;51.366;12.350;2022-09-09T09:10:49;99892.38;;;19.76;69.95
66681;BME280;53575;51.366;12.350;2022-09-09T09:13:32;99891.72;;;19.88;68.39
66681;BME280;53575;51.366;12.350;2022-09-09T09:16:12;99895.09;;;19.91;68.42
66681;BME280;53575;51.366;12.350;2022-09-09T09:18:39;99895.78;;;20.12;68.34
66681;BME280;53575;51.366;12.350;2022-09-09T09:21:12;99896.84;;;20.26;67.57
66681;BME280;53575;51.366;12.350;2022-09-09T09:23:59;99899.34;;;20.29;66.45
66681;BME280;53575;51.366;12.350;2022-09-09T09:26:30;99901.13;;;20.45;66.88
66681;BME280;53575;51.366;12.350;2022-09-09T09:28:58;99897.66;;;20.61;64.09
66681;BME280;53575;51.366;12.350;2022-09-09T09:31:24;99896.22;;;20.71;64.15
66681;BME280;53575;51.366;12.350;2022-09-09T09:33:55;99891.25;;;20.81;63.09
66681;BME280;53575;51.366;12.350;2022-09-09T09:36:42;99893.94;;;20.97;63.47
66681;BME280;53575;51.366;12.350;2022-09-09T09:39:10;99889.13;;;21.19;62.46
66681;BME280;53575;51.366;12.350;2022-09-09T09:41:40;99884.00;;;21.62;61.22
66681;BME280;53575;51.366;12.350;2022-09-09T09:46:47;99884.63;;;21.81;59.56
66681;BME280;53575;51.366;12.350;2022-09-09T09:49:12;99886.16;;;21.71;60.60
66681;BME280;53575;51.366;12.350;2022-09-09T09:51:39;99889.72;;;21.70;61.04
66681;BME280;53575;51.366;12.350;2022-09-09T09:56:43;99896.97;;;21.68;61.48
66681;BME280;53575;51.366;12.350;2022-09-09T10:01:54;99894.06;;;21.25;62.88
66681;BME280;53575;51.366;12.350;2022-09-09T10:04:22;99895.19;;;21.21;63.40
66681;BME280;53575;51.366;12.350;2022-09-09T10:06:50;99892.19;;;21.27;63.72
66681;BME280;53575;51.366;12.350;2022-09-09T10:09:24;99889.63;;;21.41;63.42
66681;BME280;53575;51.366;12.350;2022-09-09T10:17:45;99888.34;;;21.79;61.67
66681;BME280;53575;51.366;12.350;2022-09-09T10:20:37;99890.09;;;21.94;61.97
66681;BME280;53575;51.366;12.350;2022-09-09T10:36:29;99888.50;;;21.46;64.50
66681;BME280;53575;51.366;12.350;2022-09-09T10:39:03;99895.03;;;21.24;61.85
66681;BME280;53575;51.366;12.350;2022-09-09T10:41:42;99889.72;;;21.08;60.66
66681;BME280;53575;51.366;12.350;2022-09-09T10:49:57;99883.72;;;20.89;61.44
66681;BME280;53575;51.366;12.350;2022-09-09T10:52:41;99876.28;;;21.11;62.18
66681;BME280;53575;51.366;12.350;2022-09-09T10:57:48;99871.28;;;21.67;61.88
66681;BME280;53575;51.366;12.350;2022-09-09T11:00:37;99867.47;;;21.87;60.03
66681;BME280;53575;51.366;12.350;2022-09-09T11:03:04;99864.56;;;22.20;59.98
66681;BME280;53575;51.366;12.350;2022-09-09T11:05:47;99872.94;;;22.14;60.00
66681;BME280;53575;51.366;12.350;2022-09-09T11:08:20;99875.34;;;21.88;59.55
66681;BME280;53575;51.366;12.350;2022-09-09T11:13:34;99884.50;;;22.13;59.16
66681;BME280;53575;51.366;12.350;2022-09-09T11:18:56;99868.03;;;22.36;56.79
66681;BME280;53575;51.366;12.350;2022-09-09T11:21:38;99874.00;;;22.54;55.76
66681;BME280;53575;51.366;12.350;2022-09-09T11:24:28;99850.38;;;22.77;55.60
66681;BME280;53575;51.366;12.350;2022-09-09T11:32:20;99849.03;;;22.98;55.38
66681;BME280;53575;51.366;12.350;2022-09-09T11:40:30;99839.03;;;23.29;54.57
66681;BME280;53575;51.366;12.350;2022-09-09T11:43:12;99837.16;;;23.44;53.57
66681;BME280;53575;51.366;12.350;2022-09-09T11:45:40;99837.69;;;23.49;53.12
66681;BME280;53575;51.366;12.350;2022-09-09T11:48:23;99836.94;;;23.47;53.18
66681;BME280;53575;51.366;12.350;2022-09-09T11:50:58;99840.72;;;23.30;52.51
66681;BME280;53575;51.366;12.350;2022-09-09T11:53:24;99829.22;;;23.29;53.05
66681;BME280;53575;51.366;12.350;2022-09-09T11:56:07;99835.38;;;23.30;52.99
66681;BME280;53575;51.366;12.350;2022-09-09T11:58:40;99835.91;;;23.22;51.99
66681;BME280;53575;51.366;12.350;2022-09-09T12:01:25;99837.53;;;23.38;52.15
66681;BME280;53575;51.366;12.350;2022-09-09T12:04:00;99844.44;;;23.27;51.99
66681;BME280;53575;51.366;12.350;2022-09-09T12:06:31;99842.69;;;23.53;52.21
66681;BME280;53575;51.366;12.350;2022-09-09T12:09:08;99857.13;;;23.51;51.15
66681;BME280;53575;51.366;12.350;2022-09-09T12:11:36;99838.41;;;23.38;50.94
66681;BME280;53575;51.366;12.350;2022-09-09T12:14:02;99835.03;;;23.62;51.57
66681;BME280;53575;51.366;12.350;2022-09-09T12:16:37;99831.81;;;24.09;51.77
66681;BME280;53575;51.366;12.350;2022-09-09T12:19:23;99829.97;;;24.35;50.51
66681;BME280;53575;51.366;12.350;2022-09-09T12:22:00;99833.41;;;23.99;51.25
66681;BME280;53575;51.366;12.350;2022-09-09T12:24:35;99836.28;;;24.08;51.49
66681;BME280;53575;51.366;12.350;2022-09-09T12:27:20;99830.81;;;23.84;51.18
66681;BME280;53575;51.366;12.350;2022-09-09T12:29:57;99834.56;;;23.95;51.21
66681;BME280;53575;51.366;12.350;2022-09-09T12:32:27;99830.94;;;24.21;50.77
66681;BME280;53575;51.366;12.350;2022-09-09T12:35:03;99822.63;;;24.39;49.48
66681;BME280;53575;51.366;12.350;2022-09-09T12:37:56;99823.16;;;24.31;49.12
66681;BME280;53575;51.366;12.350;2022-09-09T12:40:27;99814.03;;;24.59;49.57
66681;BME280;53575;51.366;12.350;2022-09-09T12:42:53;99819.78;;;24.66;48.48
66681;BME280;53575;51.366;12.350;2022-09-09T12:45:24;99824.94;;;24.30;49.08
66681;BME280;53575;51.366;12.350;2022-09-09T12:47:56;99811.84;;;24.02;50.29
66681;BME280;53575;51.366;12.350;2022-09-09T12:50:25;99812.53;;;23.66;52.04
66681;BME280;53575;51.366;12.350;2022-09-09T12:52:55;99807.91;;;23.82;51.39
66681;BME280;53575;51.366;12.350;2022-09-09T12:55:33;99810.50;;;23.56;51.37
66681;BME280;53575;51.366;12.350;2022-09-09T12:58:01;99809.50;;;23.32;51.59
66681;BME280;53575;51.366;12.350;2022-09-09T13:00:31;99803.00;;;23.49;51.54
66681;BME280;53575;51.366;12.350;2022-09-09T13:02:58;99799.69;;;23.98;50.50
66681;BME280;53575;51.366;12.350;2022-09-09T13:05:25;99800.81;;;24.45;49.24
66681;BME280;53575;51.366;12.350;2022-09-09T13:07:52;99798.72;;;24.61;48.29
66681;BME280;53575;51.366;12.350;2022-09-09T13:10:24;99804.97;;;24.86;46.93
66681;BME280;53575;51.366;12.350;2022-09-09T13:12:52;99803.50;;;24.82;48.12
66681;BME280;53575;51.366;12.350;2022-09-09T13:15:26;99796.50;;;24.92;46.39
66681;BME280;53575;51.366;12.350;2022-09-09T13:17:54;99794.91;;;24.89;46.63
66681;BME280;53575;51.366;12.350;2022-09-09T13:20:21;99805.19;;;24.46;47.84
66681;BME280;53575;51.366;12.350;2022-09-09T13:22:49;99795.63;;;24.05;48.28
66681;BME280;53575;51.366;12.350;2022-09-09T13:25:23;99802.69;;;23.53;49.87
66681;BME280;53575;51.366;12.350;2022-09-09T13:27:57;99793.97;;;23.11;51.21
66681;BME280;53575;51.366;12.350;2022-09-09T13:30:27;99795.53;;;23.01;51.57
66681;BME280;53575;51.366;12.350;2022-09-09T13:33:03;99798.09;;;23.03;50.78
66681;BME280;53575;51.366;12.350;2022-09-09T13:35:30;99804.97;;;22.93;51.84
66681;BME280;53575;51.366;12.350;2022-09-09T13:37:56;99799.56;;;22.80;52.31
66681;BME280;53575;51.366;12.350;2022-09-09T13:40:22;99789.09;;;22.77;52.45
66681;BME280;53575;51.366;12.350;2022-09-09T13:42:52;99789.19;;;22.90;52.38
66681;BME280;53575;51.366;12.350;2022-09-09T13:45:21;99790.50;;;22.97;51.86
66681;BME280;53575;51.366;12.350;2022-09-09T13:47:47;99799.56;;;22.94;52.08
66681;BME280;53575;51.366;12.350;2022-09-09T13:50:29;99801.47;;;22.92;52.59
66681;BME280;53575;51.366;12.350;2022-09-09T13:52:56;99796.69;;;22.97;52.56
66681;BME280;53575;51.366;12.350;2022-09-09T13:55:27;99800.41;;;22.95;52.88
66681;BME280;53575;51.366;12.350;2022-09-09T13:58:03;99796.91;;;22.94;51.98
66681;BME280;53575;51.366;12.350;2022-09-09T14:00:32;99798.59;;;22.95;52.43
66681;BME280;53575;51.366;12.350;2022-09-09T14:02:58;99805.47;;;23.12;52.56
66681;BME280;53575;51.366;12.350;2022-09-09T14:05:25;99810.22;;;23.34;52.59
66681;BME280;53575;51.366;12.350;2022-09-09T14:07:51;99813.88;;;23.86;51.24
66681;BME280;53575;51.366;12.350;2022-09-09T14:10:16;99826.16;;;24.14;47.12
66681;BME280;53575;51.366;12.350;2022-09-09T14:12:42;99815.16;;;24.05;44.81
66681;BME280;53575;51.366;12.350;2022-09-09T14:15:09;99825.50;;;24.10;44.34
66681;BME280;53575;51.366;12.350;2022-09-09T14:17:35;99822.63;;;23.88;44.71
66681;BME280;53575;51.366;12.350;2022-09-09T14:20:04;99821.59;;;23.63;44.79
66681;BME280;53575;51.366;12.350;2022-09-09T14:22:35;99821.81;;;23.47;44.37
66681;BME280;53575;51.366;12.350;2022-09-09T14:25:01;99819.09;;;23.34;44.42
66681;BME280;53575;51.366;12.350;2022-09-09T14:27:26;99821.88;;;22.65;47.32
66681;BME280;53575;51.366;12.350;2022-09-09T14:29:52;99817.69;;;22.46;48.30
66681;BME280;53575;51.366;12.350;2022-09-09T14:32:18;99807.94;;;22.32;47.64
66681;BME280;53575;51.366;12.350;2022-09-09T14:34:43;99809.34;;;22.38;47.67
66681;BME280;53575;51.366;12.350;2022-09-09T14:37:08;99807.75;;;22.21;49.38
66681;BME280;53575;51.366;12.350;2022-09-09T14:39:34;99790.72;;;22.09;48.81
66681;BME280;53575;51.366;12.350;2022-09-09T14:41:59;99803.75;;;22.14;48.59
66681;BME280;53575;51.366;12.350;2022-09-09T14:44:24;99797.63;;;22.12;48.77
66681;BME280;53575;51.366;12.350;2022-09-09T14:46:50;99790.31;;;22.01;49.26
66681;BME280;53575;51.366;12.350;2022-09-09T14:49:16;99787.94;;;21.97;49.98